sensor_id;sensor_type;location;lat;lon;timestamp;P1;durP1;ratioP1;P2;durP2;ratioP2
62102;SDS011;48077;48.104;11.702;2023-03-01T00:01:53;93.05;;;84.45;;
62102;SDS011;48077;48.104;11.702;2023-03-01T00:04:16;91.03;;;82.50;;
62102;SDS011;48077;48.104;11.702;2023-03-01T00:06:40;99.28;;;89.47;;
62102;SDS011;48077;48.104;11.702;2023-03-01T00:09:05;92.90;;;84.18;;
62102;SDS011;48077;48.104;11.702;2023-03-01T00:11:29;92.03;;;83.63;;
62102;SDS011;48077;48.104;11.702;2023-03-01T00:13:55;91.60;;;83.30;;
62102;SDS011;48077;48.104;11.702;2023-03-01T00:16:24;92.95;;;84.05;;
62102;SDS011;48077;48.104;11.702;2023-03-01T00:18:51;97.13;;;87.70;;
62102;SDS011;48077;48.104;11.702;2023-03-01T00:21:15;91.97;;;83.53;;
62102;SDS011;48077;48.104;11.702;2023-03-01T00:23:38;93.60;;;84.65;;
62102;SDS011;48077;48.104;11.702;2023-03-01T00:26:04;92.28;;;83.70;;
62102;SDS011;48077;48.104;11.702;2023-03-01T00:28:29;93.53;;;85.13;;
62102;SDS011;48077;48.104;11.702;2023-03-01T00:30:52;94.28;;;85.72;;
62102;SDS011;48077;48.104;11.702;2023-03-01T00:33:16;93.20;;;84.75;;
62102;SDS011;48077;48.104;11.702;2023-03-01T00:35:40;91.75;;;83.38;;
62102;SDS011;48077;48.104;11.702;2023-03-01T00:38:04;91.28;;;82.85;;
62102;SDS011;48077;48.104;11.702;2023-03-01T00:40:28;89.45;;;81.60;;
62102;SDS011;48077;48.104;11.702;2023-03-01T00:42:52;90.28;;;82.32;;
62102;SDS011;48077;48.104;11.702;2023-03-01T00:45:15;91.97;;;83.45;;
62102;SDS011;48077;48.104;11.702;2023-03-01T00:47:39;94.43;;;85.75;;
62102;SDS011;48077;48.104;11.702;2023-03-01T00:50:02;94.03;;;85.18;;
62102;SDS011;48077;48.104;11.702;2023-03-01T00:52:26;90.03;;;81.88;;
62102;SDS011;48077;48.104;11.702;2023-03-01T00:54:51;91.28;;;83.03;;
62102;SDS011;48077;48.104;11.702;2023-03-01T00:57:15;93.30;;;84.55;;
62102;SDS011;48077;48.104;11.702;2023-03-01T00:59:38;92.53;;;84.13;;
62102;SDS011;48077;48.104;11.702;2023-03-01T01:02:02;91.82;;;83.38;;
62102;SDS011;48077;48.104;11.702;2023-03-01T01:04:25;92.20;;;83.90;;
62102;SDS011;48077;48.104;11.702;2023-03-01T01:06:48;95.65;;;86.68;;
62102;SDS011;48077;48.104;11.702;2023-03-01T01:09:13;95.40;;;86.53;;
62102;SDS011;48077;48.104;11.702;2023-03-01T01:11:43;95.10;;;86.40;;
62102;SDS011;48077;48.104;11.702;2023-03-01T01:14:07;93.68;;;84.93;;
62102;SDS011;48077;48.104;11.702;2023-03-01T01:16:31;91.78;;;83.07;;
62102;SDS011;48077;48.104;11.702;2023-03-01T01:18:55;92.95;;;84.35;;
62102;SDS011;48077;48.104;11.702;2023-03-01T01:21:19;95.20;;;85.93;;
62102;SDS011;48077;48.104;11.702;2023-03-01T01:23:45;94.82;;;85.93;;
62102;SDS011;48077;48.104;11.702;2023-03-01T01:26:10;95.38;;;86.57;;
62102;SDS011;48077;48.104;11.702;2023-03-01T01:28:35;95.45;;;86.43;;
62102;SDS011;48077;48.104;11.702;2023-03-01T01:30:59;94.55;;;85.88;;
62102;SDS011;48077;48.104;11.702;2023-03-01T01:33:22;95.80;;;86.57;;
62102;SDS011;48077;48.104;11.702;2023-03-01T01:35:48;95.03;;;86.28;;
62102;SDS011;48077;48.104;11.702;2023-03-01T01:38:12;95.07;;;86.03;;
62102;SDS011;48077;48.104;11.702;2023-03-01T01:40:42;97.88;;;88.47;;
62102;SDS011;48077;48.104;11.702;2023-03-01T01:43:09;99.55;;;90.40;;
62102;SDS011;48077;48.104;11.702;2023-03-01T01:45:41;98.40;;;89.25;;
62102;SDS011;48077;48.104;11.702;2023-03-01T01:48:05;98.75;;;89.47;;
62102;SDS011;48077;48.104;11.702;2023-03-01T01:50:33;100.18;;;91.10;;
62102;SDS011;48077;48.104;11.702;2023-03-01T01:53:01;99.65;;;90.40;;
62102;SDS011;48077;48.104;11.702;2023-03-01T01:55:25;95.97;;;87.07;;
62102;SDS011;48077;48.104;11.702;2023-03-01T01:57:54;98.60;;;89.25;;
62102;SDS011;48077;48.104;11.702;2023-03-01T02:00:23;98.47;;;89.60;;
62102;SDS011;48077;48.104;11.702;2023-03-01T02:02:50;96.75;;;87.70;;
62102;SDS011;48077;48.104;11.702;2023-03-01T02:05:22;97.97;;;88.88;;
62102;SDS011;48077;48.104;11.702;2023-03-01T02:07:53;98.30;;;89.13;;
62102;SDS011;48077;48.104;11.702;2023-03-01T02:10:19;98.32;;;89.05;;
62102;SDS011;48077;48.104;11.702;2023-03-01T02:12:43;96.85;;;87.72;;
62102;SDS011;48077;48.104;11.702;2023-03-01T02:15:08;96.85;;;87.63;;
62102;SDS011;48077;48.104;11.702;2023-03-01T02:17:32;98.15;;;88.93;;
62102;SDS011;48077;48.104;11.702;2023-03-01T02:20:03;94.60;;;85.82;;
62102;SDS011;48077;48.104;11.702;2023-03-01T02:22:30;99.43;;;89.75;;
62102;SDS011;48077;48.104;11.702;2023-03-01T02:30:17;97.35;;;88.53;;
62102;SDS011;48077;48.104;11.702;2023-03-01T02:32:42;99.75;;;90.30;;
62102;SDS011;48077;48.104;11.702;2023-03-01T02:35:05;96.57;;;87.63;;
62102;SDS011;48077;48.104;11.702;2023-03-01T02:37:29;99.03;;;89.85;;
62102;SDS011;48077;48.104;11.702;2023-03-01T02:39:59;98.28;;;89.28;;
62102;SDS011;48077;48.104;11.702;2023-03-01T02:42:30;98.00;;;87.97;;
62102;SDS011;48077;48.104;11.702;2023-03-01T02:44:56;98.68;;;89.50;;
62102;SDS011;48077;48.104;11.702;2023-03-01T02:47:19;98.32;;;89.03;;
62102;SDS011;48077;48.104;11.702;2023-03-01T02:49:43;98.95;;;89.88;;
62102;SDS011;48077;48.104;11.702;2023-03-01T02:54:59;100.82;;;91.45;;
62102;SDS011;48077;48.104;11.702;2023-03-01T02:57:29;98.57;;;89.45;;
62102;SDS011;48077;48.104;11.702;2023-03-01T02:59:54;99.55;;;89.90;;
62102;SDS011;48077;48.104;11.702;2023-03-01T03:02:20;97.25;;;88.32;;
62102;SDS011;48077;48.104;11.702;2023-03-01T03:05:04;101.20;;;91.70;;
62102;SDS011;48077;48.104;11.702;2023-03-01T03:07:32;98.55;;;89.50;;
62102;SDS011;48077;48.104;11.702;2023-03-01T03:09:57;101.90;;;91.85;;
62102;SDS011;48077;48.104;11.702;2023-03-01T03:12:20;101.30;;;91.50;;
62102;SDS011;48077;48.104;11.702;2023-03-01T03:14:43;99.20;;;90.40;;
62102;SDS011;48077;48.104;11.702;2023-03-01T03:17:07;99.20;;;89.97;;
62102;SDS011;48077;48.104;11.702;2023-03-01T03:19:30;100.35;;;91.10;;
62102;SDS011;48077;48.104;11.702;2023-03-01T03:21:53;97.78;;;88.95;;
62102;SDS011;48077;48.104;11.702;2023-03-01T03:24:17;100.20;;;90.60;;
62102;SDS011;48077;48.104;11.702;2023-03-01T03:26:41;98.50;;;89.32;;
62102;SDS011;48077;48.104;11.702;2023-03-01T03:29:04;98.45;;;89.05;;
62102;SDS011;48077;48.104;11.702;2023-03-01T03:31:28;100.22;;;90.78;;
62102;SDS011;48077;48.104;11.702;2023-03-01T03:33:51;99.85;;;90.40;;
62102;SDS011;48077;48.104;11.702;2023-03-01T03:36:18;102.82;;;92.97;;
62102;SDS011;48077;48.104;11.702;2023-03-01T03:38:44;101.85;;;92.53;;
62102;SDS011;48077;48.104;11.702;2023-03-01T03:41:08;100.20;;;91.00;;
62102;SDS011;48077;48.104;11.702;2023-03-01T03:43:32;100.10;;;90.95;;
62102;SDS011;48077;48.104;11.702;2023-03-01T03:45:57;101.10;;;92.00;;
62102;SDS011;48077;48.104;11.702;2023-03-01T03:48:23;98.00;;;89.15;;
62102;SDS011;48077;48.104;11.702;2023-03-01T03:50:48;99.82;;;90.40;;
62102;SDS011;48077;48.104;11.702;2023-03-01T03:53:16;100.22;;;91.28;;
62102;SDS011;48077;48.104;11.702;2023-03-01T03:55:40;103.30;;;93.63;;
62102;SDS011;48077;48.104;11.702;2023-03-01T03:58:03;100.47;;;91.30;;
62102;SDS011;48077;48.104;11.702;2023-03-01T04:00:29;99.30;;;89.80;;
62102;SDS011;48077;48.104;11.702;2023-03-01T04:02:53;101.13;;;92.18;;
62102;SDS011;48077;48.104;11.702;2023-03-01T04:05:19;97.10;;;88.32;;
62102;SDS011;48077;48.104;11.702;2023-03-01T04:07:42;101.07;;;91.32;;
62102;SDS011;48077;48.104;11.702;2023-03-01T04:10:07;102.53;;;92.72;;
62102;SDS011;48077;48.104;11.702;2023-03-01T04:12:36;102.05;;;92.63;;
62102;SDS011;48077;48.104;11.702;2023-03-01T04:15:00;101.38;;;91.70;;
62102;SDS011;48077;48.104;11.702;2023-03-01T04:17:24;101.25;;;91.93;;
62102;SDS011;48077;48.104;11.702;2023-03-01T04:19:47;101.32;;;91.95;;
62102;SDS011;48077;48.104;11.702;2023-03-01T04:22:11;102.63;;;92.97;;
62102;SDS011;48077;48.104;11.702;2023-03-01T04:24:41;103.25;;;92.90;;
62102;SDS011;48077;48.104;11.702;2023-03-01T04:27:04;101.43;;;91.82;;
62102;SDS011;48077;48.104;11.702;2023-03-01T04:29:28;100.78;;;91.30;;
62102;SDS011;48077;48.104;11.702;2023-03-01T04:31:51;100.85;;;91.53;;
62102;SDS011;48077;48.104;11.702;2023-03-01T04:34:14;103.20;;;92.95;;
62102;SDS011;48077;48.104;11.702;2023-03-01T04:36:38;100.55;;;91.03;;
62102;SDS011;48077;48.104;11.702;2023-03-01T04:39:02;102.22;;;92.53;;
62102;SDS011;48077;48.104;11.702;2023-03-01T04:41:34;101.85;;;92.22;;
62102;SDS011;48077;48.104;11.702;2023-03-01T04:43:58;101.13;;;91.68;;
62102;SDS011;48077;48.104;11.702;2023-03-01T04:46:23;102.82;;;93.40;;
62102;SDS011;48077;48.104;11.702;2023-03-01T04:48:46;102.10;;;92.30;;
62102;SDS011;48077;48.104;11.702;2023-03-01T04:51:10;102.65;;;92.57;;
62102;SDS011;48077;48.104;11.702;2023-03-01T04:53:36;104.30;;;94.47;;
62102;SDS011;48077;48.104;11.702;2023-03-01T04:55:59;101.88;;;92.53;;
62102;SDS011;48077;48.104;11.702;2023-03-01T04:58:23;103.22;;;93.38;;
62102;SDS011;48077;48.104;11.702;2023-03-01T05:00:48;102.78;;;93.22;;
62102;SDS011;48077;48.104;11.702;2023-03-01T05:03:11;105.95;;;95.93;;
62102;SDS011;48077;48.104;11.702;2023-03-01T05:05:35;104.32;;;94.75;;
62102;SDS011;48077;48.104;11.702;2023-03-01T05:08:01;104.40;;;94.82;;
62102;SDS011;48077;48.104;11.702;2023-03-01T05:10:27;108.45;;;98.45;;
62102;SDS011;48077;48.104;11.702;2023-03-01T05:12:52;105.03;;;94.82;;
62102;SDS011;48077;48.104;11.702;2023-03-01T05:15:15;106.18;;;95.75;;
62102;SDS011;48077;48.104;11.702;2023-03-01T05:17:39;106.13;;;96.03;;
62102;SDS011;48077;48.104;11.702;2023-03-01T05:20:02;105.50;;;95.70;;
62102;SDS011;48077;48.104;11.702;2023-03-01T05:22:31;108.40;;;97.85;;
62102;SDS011;48077;48.104;11.702;2023-03-01T05:24:54;108.18;;;98.20;;
62102;SDS011;48077;48.104;11.702;2023-03-01T05:27:18;108.28;;;97.72;;
62102;SDS011;48077;48.104;11.702;2023-03-01T05:29:45;105.55;;;95.75;;
62102;SDS011;48077;48.104;11.702;2023-03-01T05:32:08;107.45;;;96.60;;
62102;SDS011;48077;48.104;11.702;2023-03-01T05:34:33;106.03;;;96.25;;
62102;SDS011;48077;48.104;11.702;2023-03-01T05:36:59;104.32;;;94.65;;
62102;SDS011;48077;48.104;11.702;2023-03-01T05:39:23;107.00;;;96.82;;
62102;SDS011;48077;48.104;11.702;2023-03-01T05:41:52;110.00;;;99.18;;
62102;SDS011;48077;48.104;11.702;2023-03-01T05:44:24;104.53;;;94.50;;
62102;SDS011;48077;48.104;11.702;2023-03-01T05:46:49;106.78;;;96.60;;
62102;SDS011;48077;48.104;11.702;2023-03-01T05:49:15;107.82;;;97.43;;
62102;SDS011;48077;48.104;11.702;2023-03-01T05:51:42;105.10;;;95.03;;
62102;SDS011;48077;48.104;11.702;2023-03-01T05:56:35;114.60;;;103.97;;
62102;SDS011;48077;48.104;11.702;2023-03-01T05:58:59;109.65;;;99.22;;
62102;SDS011;48077;48.104;11.702;2023-03-01T06:01:23;108.95;;;98.78;;
62102;SDS011;48077;48.104;11.702;2023-03-01T06:03:47;109.22;;;98.95;;
62102;SDS011;48077;48.104;11.702;2023-03-01T06:06:10;108.13;;;97.88;;
62102;SDS011;48077;48.104;11.702;2023-03-01T06:08:33;110.75;;;99.75;;
62102;SDS011;48077;48.104;11.702;2023-03-01T06:10:57;109.15;;;98.88;;
62102;SDS011;48077;48.104;11.702;2023-03-01T06:13:20;108.78;;;98.65;;
62102;SDS011;48077;48.104;11.702;2023-03-01T06:15:43;108.65;;;98.18;;
62102;SDS011;48077;48.104;11.702;2023-03-01T06:18:08;109.85;;;98.78;;
62102;SDS011;48077;48.104;11.702;2023-03-01T06:20:31;109.63;;;99.35;;
62102;SDS011;48077;48.104;11.702;2023-03-01T06:22:54;110.72;;;100.28;;
62102;SDS011;48077;48.104;11.702;2023-03-01T06:25:19;106.75;;;96.55;;
62102;SDS011;48077;48.104;11.702;2023-03-01T06:27:44;111.47;;;100.82;;
62102;SDS011;48077;48.104;11.702;2023-03-01T06:30:10;109.25;;;98.82;;
62102;SDS011;48077;48.104;11.702;2023-03-01T06:32:34;107.10;;;96.82;;
62102;SDS011;48077;48.104;11.702;2023-03-01T06:34:57;109.50;;;98.90;;
62102;SDS011;48077;48.104;11.702;2023-03-01T06:37:21;108.28;;;98.03;;
62102;SDS011;48077;48.104;11.702;2023-03-01T06:39:44;107.60;;;97.18;;
62102;SDS011;48077;48.104;11.702;2023-03-01T06:42:08;108.68;;;98.40;;
62102;SDS011;48077;48.104;11.702;2023-03-01T06:44:35;109.75;;;99.03;;
62102;SDS011;48077;48.104;11.702;2023-03-01T06:46:58;109.03;;;98.82;;
62102;SDS011;48077;48.104;11.702;2023-03-01T06:49:22;110.50;;;99.80;;
62102;SDS011;48077;48.104;11.702;2023-03-01T06:51:45;107.70;;;97.47;;
62102;SDS011;48077;48.104;11.702;2023-03-01T06:54:09;109.63;;;99.22;;
62102;SDS011;48077;48.104;11.702;2023-03-01T06:56:33;110.72;;;99.53;;
62102;SDS011;48077;48.104;11.702;2023-03-01T06:58:56;110.85;;;100.30;;
62102;SDS011;48077;48.104;11.702;2023-03-01T07:01:19;110.10;;;99.38;;
62102;SDS011;48077;48.104;11.702;2023-03-01T07:03:43;108.57;;;98.05;;
62102;SDS011;48077;48.104;11.702;2023-03-01T07:06:07;111.05;;;100.25;;
62102;SDS011;48077;48.104;11.702;2023-03-01T07:08:30;108.22;;;97.95;;
62102;SDS011;48077;48.104;11.702;2023-03-01T07:10:57;107.82;;;97.30;;
62102;SDS011;48077;48.104;11.702;2023-03-01T07:13:21;108.28;;;98.00;;
62102;SDS011;48077;48.104;11.702;2023-03-01T07:15:44;106.93;;;96.57;;
62102;SDS011;48077;48.104;11.702;2023-03-01T07:18:08;108.07;;;97.30;;
62102;SDS011;48077;48.104;11.702;2023-03-01T07:20:31;106.28;;;96.05;;
62102;SDS011;48077;48.104;11.702;2023-03-01T07:22:55;107.78;;;97.38;;
62102;SDS011;48077;48.104;11.702;2023-03-01T07:25:21;109.20;;;98.78;;
62102;SDS011;48077;48.104;11.702;2023-03-01T07:27:48;106.55;;;95.60;;
62102;SDS011;48077;48.104;11.702;2023-03-01T07:30:13;108.77;;;98.47;;
62102;SDS011;48077;48.104;11.702;2023-03-01T07:32:36;108.22;;;98.13;;
62102;SDS011;48077;48.104;11.702;2023-03-01T07:34:59;105.22;;;95.28;;
62102;SDS011;48077;48.104;11.702;2023-03-01T07:37:23;107.78;;;97.47;;
62102;SDS011;48077;48.104;11.702;2023-03-01T07:39:47;105.07;;;95.38;;
62102;SDS011;48077;48.104;11.702;2023-03-01T07:42:10;107.15;;;97.13;;
62102;SDS011;48077;48.104;11.702;2023-03-01T07:44:34;106.43;;;96.22;;
62102;SDS011;48077;48.104;11.702;2023-03-01T07:47:00;107.38;;;96.72;;
62102;SDS011;48077;48.104;11.702;2023-03-01T07:49:23;106.95;;;96.88;;
62102;SDS011;48077;48.104;11.702;2023-03-01T07:51:49;106.80;;;96.63;;
62102;SDS011;48077;48.104;11.702;2023-03-01T07:54:12;108.40;;;97.70;;
62102;SDS011;48077;48.104;11.702;2023-03-01T07:56:37;106.03;;;96.00;;
62102;SDS011;48077;48.104;11.702;2023-03-01T07:59:01;105.20;;;94.78;;
62102;SDS011;48077;48.104;11.702;2023-03-01T08:01:26;107.47;;;97.00;;
62102;SDS011;48077;48.104;11.702;2023-03-01T08:03:52;104.75;;;94.60;;
62102;SDS011;48077;48.104;11.702;2023-03-01T08:06:16;105.22;;;94.80;;
62102;SDS011;48077;48.104;11.702;2023-03-01T08:08:40;102.43;;;92.53;;
62102;SDS011;48077;48.104;11.702;2023-03-01T08:11:04;107.07;;;96.93;;
62102;SDS011;48077;48.104;11.702;2023-03-01T08:13:29;104.25;;;94.22;;
62102;SDS011;48077;48.104;11.702;2023-03-01T08:15:53;103.15;;;93.60;;
62102;SDS011;48077;48.104;11.702;2023-03-01T08:18:17;105.43;;;95.00;;
62102;SDS011;48077;48.104;11.702;2023-03-01T08:20:42;108.13;;;97.47;;
62102;SDS011;48077;48.104;11.702;2023-03-01T08:23:05;104.75;;;93.80;;
62102;SDS011;48077;48.104;11.702;2023-03-01T08:25:28;102.95;;;93.03;;
62102;SDS011;48077;48.104;11.702;2023-03-01T08:27:52;104.93;;;94.88;;
62102;SDS011;48077;48.104;11.702;2023-03-01T08:30:15;103.28;;;93.72;;
62102;SDS011;48077;48.104;11.702;2023-03-01T08:32:39;103.53;;;93.80;;
62102;SDS011;48077;48.104;11.702;2023-03-01T08:35:02;102.95;;;92.88;;
62102;SDS011;48077;48.104;11.702;2023-03-01T08:37:26;104.28;;;93.70;;
62102;SDS011;48077;48.104;11.702;2023-03-01T08:39:50;101.47;;;92.07;;
62102;SDS011;48077;48.104;11.702;2023-03-01T08:42:14;103.80;;;93.70;;
62102;SDS011;48077;48.104;11.702;2023-03-01T08:44:37;100.95;;;91.13;;
62102;SDS011;48077;48.104;11.702;2023-03-01T08:47:00;101.97;;;91.97;;
62102;SDS011;48077;48.104;11.702;2023-03-01T08:49:25;99.40;;;89.88;;
62102;SDS011;48077;48.104;11.702;2023-03-01T08:51:48;100.43;;;90.75;;
62102;SDS011;48077;48.104;11.702;2023-03-01T08:54:15;99.82;;;90.13;;
62102;SDS011;48077;48.104;11.702;2023-03-01T08:56:41;100.03;;;90.43;;
62102;SDS011;48077;48.104;11.702;2023-03-01T08:59:05;99.35;;;89.78;;
62102;SDS011;48077;48.104;11.702;2023-03-01T09:01:28;100.95;;;91.13;;
62102;SDS011;48077;48.104;11.702;2023-03-01T09:03:52;101.85;;;91.13;;
62102;SDS011;48077;48.104;11.702;2023-03-01T09:06:15;104.57;;;94.07;;
62102;SDS011;48077;48.104;11.702;2023-03-01T09:08:44;99.68;;;90.10;;
62102;SDS011;48077;48.104;11.702;2023-03-01T09:11:09;103.57;;;93.32;;
62102;SDS011;48077;48.104;11.702;2023-03-01T09:13:34;101.93;;;92.32;;
62102;SDS011;48077;48.104;11.702;2023-03-01T09:15:58;98.97;;;89.53;;
62102;SDS011;48077;48.104;11.702;2023-03-01T09:18:23;98.15;;;88.82;;
62102;SDS011;48077;48.104;11.702;2023-03-01T09:20:49;99.97;;;90.38;;
62102;SDS011;48077;48.104;11.702;2023-03-01T09:23:12;105.47;;;94.95;;
62102;SDS011;48077;48.104;11.702;2023-03-01T09:25:36;99.85;;;90.03;;
62102;SDS011;48077;48.104;11.702;2023-03-01T09:27:59;102.65;;;92.05;;
62102;SDS011;48077;48.104;11.702;2023-03-01T09:30:25;99.45;;;89.82;;
62102;SDS011;48077;48.104;11.702;2023-03-01T09:32:48;100.75;;;90.75;;
62102;SDS011;48077;48.104;11.702;2023-03-01T09:35:11;102.88;;;92.28;;
62102;SDS011;48077;48.104;11.702;2023-03-01T09:37:38;101.72;;;91.70;;
62102;SDS011;48077;48.104;11.702;2023-03-01T09:40:08;101.35;;;91.55;;
62102;SDS011;48077;48.104;11.702;2023-03-01T09:42:46;102.40;;;92.55;;
62102;SDS011;48077;48.104;11.702;2023-03-01T09:45:18;100.82;;;91.22;;
62102;SDS011;48077;48.104;11.702;2023-03-01T09:47:49;101.00;;;91.20;;
62102;SDS011;48077;48.104;11.702;2023-03-01T09:50:14;100.40;;;90.68;;
62102;SDS011;48077;48.104;11.702;2023-03-01T09:52:42;101.83;;;91.97;;
62102;SDS011;48077;48.104;11.702;2023-03-01T09:55:20;100.22;;;90.70;;
62102;SDS011;48077;48.104;11.702;2023-03-01T09:58:13;102.75;;;92.75;;
62102;SDS011;48077;48.104;11.702;2023-03-01T10:01:02;102.10;;;92.18;;
62102;SDS011;48077;48.104;11.702;2023-03-01T10:03:43;100.10;;;90.75;;
62102;SDS011;48077;48.104;11.702;2023-03-01T10:06:21;100.57;;;90.85;;
62102;SDS011;48077;48.104;11.702;2023-03-01T10:08:48;100.78;;;91.15;;
62102;SDS011;48077;48.104;11.702;2023-03-01T10:11:20;98.88;;;89.00;;
62102;SDS011;48077;48.104;11.702;2023-03-01T10:13:50;95.13;;;86.10;;
62102;SDS011;48077;48.104;11.702;2023-03-01T10:19:23;99.15;;;89.35;;
62102;SDS011;48077;48.104;11.702;2023-03-01T10:22:03;99.43;;;89.43;;
62102;SDS011;48077;48.104;11.702;2023-03-01T10:24:34;95.78;;;86.75;;
62102;SDS011;48077;48.104;11.702;2023-03-01T10:27:04;96.47;;;87.22;;
62102;SDS011;48077;48.104;11.702;2023-03-01T10:29:49;94.47;;;85.65;;
62102;SDS011;48077;48.104;11.702;2023-03-01T10:32:15;96.15;;;87.15;;
62102;SDS011;48077;48.104;11.702;2023-03-01T10:34:40;93.35;;;84.55;;
62102;SDS011;48077;48.104;11.702;2023-03-01T10:37:11;91.18;;;82.28;;
62102;SDS011;48077;48.104;11.702;2023-03-01T10:40:12;94.15;;;84.80;;
62102;SDS011;48077;48.104;11.702;2023-03-01T10:42:46;93.63;;;84.50;;
62102;SDS011;48077;48.104;11.702;2023-03-01T10:50:35;95.40;;;86.25;;
62102;SDS011;48077;48.104;11.702;2023-03-01T10:53:01;91.20;;;82.15;;
62102;SDS011;48077;48.104;11.702;2023-03-01T10:55:28;90.07;;;81.38;;
62102;SDS011;48077;48.104;11.702;2023-03-01T11:00:46;91.55;;;82.43;;
62102;SDS011;48077;48.104;11.702;2023-03-01T11:03:22;90.18;;;81.03;;
62102;SDS011;48077;48.104;11.702;2023-03-01T11:06:19;94.28;;;84.63;;
62102;SDS011;48077;48.104;11.702;2023-03-01T11:08:45;92.57;;;83.43;;
62102;SDS011;48077;48.104;11.702;2023-03-01T11:13:57;85.72;;;77.57;;
62102;SDS011;48077;48.104;11.702;2023-03-01T11:16:31;81.95;;;73.78;;
62102;SDS011;48077;48.104;11.702;2023-03-01T11:21:32;78.35;;;70.40;;
62102;SDS011;48077;48.104;11.702;2023-03-01T11:24:00;74.78;;;67.22;;
62102;SDS011;48077;48.104;11.702;2023-03-01T11:26:26;76.13;;;68.68;;
62102;SDS011;48077;48.104;11.702;2023-03-01T11:28:52;74.57;;;67.32;;
62102;SDS011;48077;48.104;11.702;2023-03-01T11:31:20;71.85;;;65.00;;
62102;SDS011;48077;48.104;11.702;2023-03-01T11:33:47;68.85;;;62.00;;
62102;SDS011;48077;48.104;11.702;2023-03-01T11:38:38;61.17;;;55.53;;
62102;SDS011;48077;48.104;11.702;2023-03-01T11:41:06;59.65;;;53.65;;
62102;SDS011;48077;48.104;11.702;2023-03-01T11:43:50;59.97;;;53.95;;
62102;SDS011;48077;48.104;11.702;2023-03-01T11:48:53;51.20;;;45.92;;
62102;SDS011;48077;48.104;11.702;2023-03-01T11:57:20;51.05;;;46.20;;
62102;SDS011;48077;48.104;11.702;2023-03-01T12:08:32;43.33;;;38.33;;
62102;SDS011;48077;48.104;11.702;2023-03-01T12:16:40;42.83;;;34.80;;
62102;SDS011;48077;48.104;11.702;2023-03-01T12:19:34;48.10;;;37.85;;
62102;SDS011;48077;48.104;11.702;2023-03-01T12:25:25;43.00;;;38.40;;
62102;SDS011;48077;48.104;11.702;2023-03-01T12:28:01;41.03;;;36.70;;
62102;SDS011;48077;48.104;11.702;2023-03-01T12:42:01;63.05;;;56.95;;
62102;SDS011;48077;48.104;11.702;2023-03-01T12:44:49;59.30;;;53.33;;
62102;SDS011;48077;48.104;11.702;2023-03-01T12:50:44;68.50;;;61.40;;
62102;SDS011;48077;48.104;11.702;2023-03-01T12:53:17;65.28;;;58.95;;
62102;SDS011;48077;48.104;11.702;2023-03-01T12:55:47;59.45;;;53.67;;
62102;SDS011;48077;48.104;11.702;2023-03-01T13:00:54;50.25;;;45.20;;
62102;SDS011;48077;48.104;11.702;2023-03-01T13:03:36;47.55;;;42.80;;
62102;SDS011;48077;48.104;11.702;2023-03-01T13:06:19;52.35;;;46.83;;
62102;SDS011;48077;48.104;11.702;2023-03-01T13:09:05;50.38;;;45.40;;
62102;SDS011;48077;48.104;11.702;2023-03-01T13:11:30;50.92;;;45.47;;
62102;SDS011;48077;48.104;11.702;2023-03-01T13:14:20;51.17;;;45.65;;
62102;SDS011;48077;48.104;11.702;2023-03-01T13:16:45;54.55;;;49.15;;
62102;SDS011;48077;48.104;11.702;2023-03-01T13:19:19;56.38;;;50.47;;
62102;SDS011;48077;48.104;11.702;2023-03-01T13:21:44;56.25;;;50.13;;
62102;SDS011;48077;48.104;11.702;2023-03-01T13:29:29;57.67;;;51.88;;
62102;SDS011;48077;48.104;11.702;2023-03-01T13:32:16;57.28;;;51.55;;
62102;SDS011;48077;48.104;11.702;2023-03-01T13:34:43;54.38;;;49.08;;
62102;SDS011;48077;48.104;11.702;2023-03-01T13:37:09;54.92;;;49.63;;
62102;SDS011;48077;48.104;11.702;2023-03-01T13:39:41;52.85;;;47.30;;
62102;SDS011;48077;48.104;11.702;2023-03-01T13:42:28;53.13;;;47.75;;
62102;SDS011;48077;48.104;11.702;2023-03-01T13:44:53;54.10;;;48.47;;
62102;SDS011;48077;48.104;11.702;2023-03-01T13:47:17;52.33;;;45.42;;
62102;SDS011;48077;48.104;11.702;2023-03-01T13:49:43;46.95;;;41.03;;
62102;SDS011;48077;48.104;11.702;2023-03-01T13:54:51;50.42;;;44.50;;
62102;SDS011;48077;48.104;11.702;2023-03-01T13:57:19;47.05;;;41.13;;
62102;SDS011;48077;48.104;11.702;2023-03-01T13:59:47;46.20;;;41.33;;
62102;SDS011;48077;48.104;11.702;2023-03-01T14:02:16;46.92;;;39.70;;
62102;SDS011;48077;48.104;11.702;2023-03-01T14:04:39;45.22;;;40.58;;
62102;SDS011;48077;48.104;11.702;2023-03-01T14:07:20;50.28;;;39.97;;
62102;SDS011;48077;48.104;11.702;2023-03-01T14:09:47;47.78;;;42.92;;
62102;SDS011;48077;48.104;11.702;2023-03-01T14:14:56;48.28;;;41.55;;
62102;SDS011;48077;48.104;11.702;2023-03-01T14:20:02;47.75;;;42.88;;
62102;SDS011;48077;48.104;11.702;2023-03-01T14:22:34;48.60;;;42.65;;
62102;SDS011;48077;48.104;11.702;2023-03-01T14:25:16;52.42;;;44.17;;
62102;SDS011;48077;48.104;11.702;2023-03-01T14:30:45;56.90;;;50.72;;
62102;SDS011;48077;48.104;11.702;2023-03-01T14:33:29;56.83;;;50.83;;
62102;SDS011;48077;48.104;11.702;2023-03-01T14:35:57;62.50;;;56.17;;
62102;SDS011;48077;48.104;11.702;2023-03-01T14:38:21;67.10;;;56.08;;
62102;SDS011;48077;48.104;11.702;2023-03-01T14:40:46;57.42;;;51.50;;
62102;SDS011;48077;48.104;11.702;2023-03-01T14:43:16;61.28;;;54.65;;
62102;SDS011;48077;48.104;11.702;2023-03-01T14:45:48;61.40;;;55.17;;
62102;SDS011;48077;48.104;11.702;2023-03-01T14:48:16;62.63;;;56.00;;
62102;SDS011;48077;48.104;11.702;2023-03-01T14:50:41;64.45;;;58.03;;
62102;SDS011;48077;48.104;11.702;2023-03-01T14:53:06;61.95;;;55.42;;
62102;SDS011;48077;48.104;11.702;2023-03-01T14:55:40;66.32;;;59.13;;
62102;SDS011;48077;48.104;11.702;2023-03-01T14:58:05;62.25;;;55.80;;
62102;SDS011;48077;48.104;11.702;2023-03-01T15:03:00;77.00;;;69.45;;
62102;SDS011;48077;48.104;11.702;2023-03-01T15:05:33;72.28;;;65.32;;
62102;SDS011;48077;48.104;11.702;2023-03-01T15:07:57;66.18;;;59.50;;
62102;SDS011;48077;48.104;11.702;2023-03-01T15:10:24;66.18;;;59.42;;
62102;SDS011;48077;48.104;11.702;2023-03-01T15:12:55;62.95;;;56.60;;
62102;SDS011;48077;48.104;11.702;2023-03-01T15:15:20;64.65;;;57.97;;
62102;SDS011;48077;48.104;11.702;2023-03-01T15:17:43;61.03;;;54.95;;
62102;SDS011;48077;48.104;11.702;2023-03-01T15:20:15;66.07;;;59.47;;
62102;SDS011;48077;48.104;11.702;2023-03-01T15:22:40;65.65;;;59.00;;
62102;SDS011;48077;48.104;11.702;2023-03-01T15:25:15;67.70;;;60.90;;
62102;SDS011;48077;48.104;11.702;2023-03-01T15:27:44;66.78;;;60.25;;
62102;SDS011;48077;48.104;11.702;2023-03-01T15:30:13;62.65;;;56.75;;
62102;SDS011;48077;48.104;11.702;2023-03-01T15:32:43;66.28;;;59.90;;
62102;SDS011;48077;48.104;11.702;2023-03-01T15:38:23;66.50;;;59.90;;